sensor_id;sensor_type;location;lat;lon;timestamp;temperature;humidity
674;DHT22;319;48.764;9.174;2023-04-01T00:00:31;10.60;99.90
674;DHT22;319;48.764;9.174;2023-04-01T00:02:58;10.60;99.90
674;DHT22;319;48.764;9.174;2023-04-01T00:05:30;10.50;99.90
674;DHT22;319;48.764;9.174;2023-04-01T00:07:57;10.50;99.90
674;DHT22;319;48.764;9.174;2023-04-01T00:10:24;10.60;99.90
674;DHT22;319;48.764;9.174;2023-04-01T00:12:51;10.60;99.90
674;DHT22;319;48.764;9.174;2023-04-01T00:15:18;10.60;99.90
674;DHT22;319;48.764;9.174;2023-04-01T00:17:46;10.70;99.90
674;DHT22;319;48.764;9.174;2023-04-01T00:20:14;10.70;99.90
674;DHT22;319;48.764;9.174;2023-04-01T00:22:42;10.70;99.90
674;DHT22;319;48.764;9.174;2023-04-01T00:25:09;10.70;99.90
674;DHT22;319;48.764;9.174;2023-04-01T00:27:36;10.80;99.90
674;DHT22;319;48.764;9.174;2023-04-01T00:30:04;10.80;99.90
674;DHT22;319;48.764;9.174;2023-04-01T00:32:32;10.80;99.90
674;DHT22;319;48.764;9.174;2023-04-01T00:34:59;10.80;99.90
674;DHT22;319;48.764;9.174;2023-04-01T00:37:26;10.80;99.90
674;DHT22;319;48.764;9.174;2023-04-01T00:39:55;10.70;99.90
674;DHT22;319;48.764;9.174;2023-04-01T00:42:23;10.70;99.90
674;DHT22;319;48.764;9.174;2023-04-01T00:44:54;10.70;99.90
674;DHT22;319;48.764;9.174;2023-04-01T00:47:22;10.70;99.90
674;DHT22;319;48.764;9.174;2023-04-01T00:49:52;10.60;99.90
674;DHT22;319;48.764;9.174;2023-04-01T00:52:23;10.70;99.90
674;DHT22;319;48.764;9.174;2023-04-01T00:54:56;10.60;99.90
674;DHT22;319;48.764;9.174;2023-04-01T00:57:29;10.60;99.90
674;DHT22;319;48.764;9.174;2023-04-01T00:59:57;10.60;99.90
674;DHT22;319;48.764;9.174;2023-04-01T01:02:25;10.60;99.90
674;DHT22;319;48.764;9.174;2023-04-01T01:04:52;10.60;99.90
674;DHT22;319;48.764;9.174;2023-04-01T01:07:25;10.60;99.90
674;DHT22;319;48.764;9.174;2023-04-01T01:10:02;10.50;99.90
674;DHT22;319;48.764;9.174;2023-04-01T01:12:35;10.50;99.90
674;DHT22;319;48.764;9.174;2023-04-01T01:15:12;10.50;99.90
674;DHT22;319;48.764;9.174;2023-04-01T01:17:50;10.50;99.90
674;DHT22;319;48.764;9.174;2023-04-01T01:21:00;10.40;99.90
674;DHT22;319;48.764;9.174;2023-04-01T01:23:51;10.30;99.90
674;DHT22;319;48.764;9.174;2023-04-01T01:29:54;10.30;99.90
674;DHT22;319;48.764;9.174;2023-04-01T01:32:53;10.40;99.90
674;DHT22;319;48.764;9.174;2023-04-01T01:35:26;10.40;99.90
674;DHT22;319;48.764;9.174;2023-04-01T01:37:57;10.40;99.90
674;DHT22;319;48.764;9.174;2023-04-01T01:40:26;10.40;99.90
674;DHT22;319;48.764;9.174;2023-04-01T01:42:57;10.40;99.90
674;DHT22;319;48.764;9.174;2023-04-01T01:45:26;10.40;99.90
674;DHT22;319;48.764;9.174;2023-04-01T01:47:54;10.50;99.90
674;DHT22;319;48.764;9.174;2023-04-01T01:50:26;10.50;99.90
674;DHT22;319;48.764;9.174;2023-04-01T01:53:01;10.50;99.90
674;DHT22;319;48.764;9.174;2023-04-01T01:55:29;10.50;99.90
674;DHT22;319;48.764;9.174;2023-04-01T01:57:59;10.50;99.90
674;DHT22;319;48.764;9.174;2023-04-01T02:00:27;10.40;99.90
674;DHT22;319;48.764;9.174;2023-04-01T02:02:54;10.40;99.90
674;DHT22;319;48.764;9.174;2023-04-01T02:05:26;10.40;99.90
674;DHT22;319;48.764;9.174;2023-04-01T02:07:59;10.40;99.90
674;DHT22;319;48.764;9.174;2023-04-01T02:10:29;10.40;99.90
674;DHT22;319;48.764;9.174;2023-04-01T02:13:00;10.40;99.90
674;DHT22;319;48.764;9.174;2023-04-01T02:15:31;10.40;99.90
674;DHT22;319;48.764;9.174;2023-04-01T02:17:59;10.40;99.90
674;DHT22;319;48.764;9.174;2023-04-01T02:20:28;10.40;99.90
674;DHT22;319;48.764;9.174;2023-04-01T02:22:57;10.40;99.90
674;DHT22;319;48.764;9.174;2023-04-01T02:25:27;10.40;99.90
674;DHT22;319;48.764;9.174;2023-04-01T02:27:56;10.40;99.90
674;DHT22;319;48.764;9.174;2023-04-01T02:30:25;10.40;99.90
674;DHT22;319;48.764;9.174;2023-04-01T02:32:53;10.40;99.90
674;DHT22;319;48.764;9.174;2023-04-01T02:35:22;10.40;99.90
674;DHT22;319;48.764;9.174;2023-04-01T02:37:52;10.50;99.90
674;DHT22;319;48.764;9.174;2023-04-01T02:40:20;10.50;99.90
674;DHT22;319;48.764;9.174;2023-04-01T02:42:47;10.40;99.90
674;DHT22;319;48.764;9.174;2023-04-01T02:45:14;10.40;99.90
674;DHT22;319;48.764;9.174;2023-04-01T02:47:41;10.40;99.90
674;DHT22;319;48.764;9.174;2023-04-01T02:50:09;10.40;99.90
674;DHT22;319;48.764;9.174;2023-04-01T02:52:36;10.30;99.90
674;DHT22;319;48.764;9.174;2023-04-01T02:55:05;10.30;99.90
674;DHT22;319;48.764;9.174;2023-04-01T02:57:32;10.40;99.90
674;DHT22;319;48.764;9.174;2023-04-01T02:59:59;10.40;99.90
674;DHT22;319;48.764;9.174;2023-04-01T03:02:26;10.30;99.90
674;DHT22;319;48.764;9.174;2023-04-01T03:04:53;10.30;99.90
674;DHT22;319;48.764;9.174;2023-04-01T03:07:20;10.20;99.90
674;DHT22;319;48.764;9.174;2023-04-01T03:09:47;10.30;99.90
674;DHT22;319;48.764;9.174;2023-04-01T03:12:15;10.20;99.90
674;DHT22;319;48.764;9.174;2023-04-01T03:14:42;10.20;99.90
674;DHT22;319;48.764;9.174;2023-04-01T03:17:09;10.10;99.90
674;DHT22;319;48.764;9.174;2023-04-01T03:19:35;10.10;99.90
674;DHT22;319;48.764;9.174;2023-04-01T03:22:02;10.10;99.90
674;DHT22;319;48.764;9.174;2023-04-01T03:24:29;10.20;99.90
674;DHT22;319;48.764;9.174;2023-04-01T03:26:56;10.10;99.90
674;DHT22;319;48.764;9.174;2023-04-01T03:29:24;10.00;99.90
674;DHT22;319;48.764;9.174;2023-04-01T03:31:51;10.00;99.90
674;DHT22;319;48.764;9.174;2023-04-01T03:34:18;10.00;99.90
674;DHT22;319;48.764;9.174;2023-04-01T03:36:45;10.10;99.90
674;DHT22;319;48.764;9.174;2023-04-01T03:39:12;10.00;99.90
674;DHT22;319;48.764;9.174;2023-04-01T03:41:38;10.10;99.90
674;DHT22;319;48.764;9.174;2023-04-01T03:44:06;10.10;99.90
674;DHT22;319;48.764;9.174;2023-04-01T03:46:34;10.10;99.90
674;DHT22;319;48.764;9.174;2023-04-01T03:49:02;10.10;99.90
674;DHT22;319;48.764;9.174;2023-04-01T03:51:29;10.20;99.90
674;DHT22;319;48.764;9.174;2023-04-01T03:53:56;10.20;99.90
674;DHT22;319;48.764;9.174;2023-04-01T03:56:23;10.20;99.90
674;DHT22;319;48.764;9.174;2023-04-01T03:58:50;10.20;99.90
674;DHT22;319;48.764;9.174;2023-04-01T04:01:18;10.20;99.90
674;DHT22;319;48.764;9.174;2023-04-01T04:03:47;10.20;99.90
674;DHT22;319;48.764;9.174;2023-04-01T04:06:16;10.10;99.90
674;DHT22;319;48.764;9.174;2023-04-01T04:08:43;10.10;99.90
674;DHT22;319;48.764;9.174;2023-04-01T04:11:11;10.00;99.90
674;DHT22;319;48.764;9.174;2023-04-01T04:13:38;10.00;99.90
674;DHT22;319;48.764;9.174;2023-04-01T04:16:05;9.90;99.90
674;DHT22;319;48.764;9.174;2023-04-01T04:18:32;9.80;99.90
674;DHT22;319;48.764;9.174;2023-04-01T04:21:01;9.80;99.90
674;DHT22;319;48.764;9.174;2023-04-01T04:23:28;9.80;99.90
674;DHT22;319;48.764;9.174;2023-04-01T04:25:56;9.80;99.90
674;DHT22;319;48.764;9.174;2023-04-01T04:28:24;9.70;99.90
674;DHT22;319;48.764;9.174;2023-04-01T04:30:51;9.70;99.90
674;DHT22;319;48.764;9.174;2023-04-01T04:33:18;9.60;99.90
674;DHT22;319;48.764;9.174;2023-04-01T04:35:45;9.60;99.90
674;DHT22;319;48.764;9.174;2023-04-01T04:38:13;9.60;99.90
674;DHT22;319;48.764;9.174;2023-04-01T04:40:41;9.50;99.90
674;DHT22;319;48.764;9.174;2023-04-01T04:43:11;9.50;99.90
674;DHT22;319;48.764;9.174;2023-04-01T04:45:38;9.50;99.90
674;DHT22;319;48.764;9.174;2023-04-01T04:48:06;9.50;99.90
674;DHT22;319;48.764;9.174;2023-04-01T04:50:34;9.50;99.90
674;DHT22;319;48.764;9.174;2023-04-01T04:53:01;9.50;99.90
674;DHT22;319;48.764;9.174;2023-04-01T04:55:29;9.50;99.90
674;DHT22;319;48.764;9.174;2023-04-01T04:57:56;9.50;99.90
674;DHT22;319;48.764;9.174;2023-04-01T05:00:23;9.50;99.90
674;DHT22;319;48.764;9.174;2023-04-01T05:02:50;9.50;99.90
674;DHT22;319;48.764;9.174;2023-04-01T05:05:17;9.50;99.90
674;DHT22;319;48.764;9.174;2023-04-01T05:07:44;9.60;99.90
674;DHT22;319;48.764;9.174;2023-04-01T05:10:43;9.50;99.90
674;DHT22;319;48.764;9.174;2023-04-01T05:13:13;9.50;99.90
674;DHT22;319;48.764;9.174;2023-04-01T05:15:40;9.50;99.90
674;DHT22;319;48.764;9.174;2023-04-01T05:18:07;9.50;99.90
674;DHT22;319;48.764;9.174;2023-04-01T05:20:34;9.60;99.90
674;DHT22;319;48.764;9.174;2023-04-01T05:23:01;9.60;99.90
674;DHT22;319;48.764;9.174;2023-04-01T05:25:28;9.70;99.90
674;DHT22;319;48.764;9.174;2023-04-01T05:27:56;9.70;99.90
674;DHT22;319;48.764;9.174;2023-04-01T05:30:23;9.80;99.90
674;DHT22;319;48.764;9.174;2023-04-01T05:32:50;9.80;99.90
674;DHT22;319;48.764;9.174;2023-04-01T05:35:17;9.90;99.90
674;DHT22;319;48.764;9.174;2023-04-01T05:37:44;9.90;99.90
674;DHT22;319;48.764;9.174;2023-04-01T05:40:11;10.00;99.90
674;DHT22;319;48.764;9.174;2023-04-01T05:42:38;10.10;99.90
674;DHT22;319;48.764;9.174;2023-04-01T05:45:07;10.20;99.90
674;DHT22;319;48.764;9.174;2023-04-01T05:47:34;10.30;99.90
674;DHT22;319;48.764;9.174;2023-04-01T05:50:01;10.40;99.90
674;DHT22;319;48.764;9.174;2023-04-01T05:52:28;10.40;99.90
674;DHT22;319;48.764;9.174;2023-04-01T05:54:55;10.50;99.90
674;DHT22;319;48.764;9.174;2023-04-01T05:57:21;10.50;99.90
674;DHT22;319;48.764;9.174;2023-04-01T05:59:48;10.60;99.90
674;DHT22;319;48.764;9.174;2023-04-01T06:02:17;10.60;99.90
674;DHT22;319;48.764;9.174;2023-04-01T06:04:48;10.70;99.90
674;DHT22;319;48.764;9.174;2023-04-01T06:07:18;10.70;99.90
674;DHT22;319;48.764;9.174;2023-04-01T06:09:45;10.80;99.90
674;DHT22;319;48.764;9.174;2023-04-01T06:12:40;10.90;99.90
674;DHT22;319;48.764;9.174;2023-04-01T06:15:18;10.90;99.90
674;DHT22;319;48.764;9.174;2023-04-01T06:18:26;11.00;99.90
674;DHT22;319;48.764;9.174;2023-04-01T06:21:01;11.00;99.90
674;DHT22;319;48.764;9.174;2023-04-01T06:23:41;11.10;99.90
674;DHT22;319;48.764;9.174;2023-04-01T06:26:24;11.20;99.90
674;DHT22;319;48.764;9.174;2023-04-01T06:29:07;11.30;99.90
674;DHT22;319;48.764;9.174;2023-04-01T06:32:00;11.40;99.90
674;DHT22;319;48.764;9.174;2023-04-01T06:34:46;11.40;99.90
674;DHT22;319;48.764;9.174;2023-04-01T06:37:40;11.50;99.90
674;DHT22;319;48.764;9.174;2023-04-01T06:40:22;11.50;99.90
674;DHT22;319;48.764;9.174;2023-04-01T06:43:04;11.70;99.40
674;DHT22;319;48.764;9.174;2023-04-01T06:45:38;11.80;99.40
674;DHT22;319;48.764;9.174;2023-04-01T06:48:19;11.80;99.40
674;DHT22;319;48.764;9.174;2023-04-01T06:50:56;11.80;99.60
674;DHT22;319;48.764;9.174;2023-04-01T06:53:31;11.80;99.30
674;DHT22;319;48.764;9.174;2023-04-01T06:56:02;11.80;99.20
674;DHT22;319;48.764;9.174;2023-04-01T06:58:37;11.80;99.40
674;DHT22;319;48.764;9.174;2023-04-01T07:01:08;11.80;99.50
674;DHT22;319;48.764;9.174;2023-04-01T07:03:39;11.90;99.50
674;DHT22;319;48.764;9.174;2023-04-01T07:06:14;11.80;99.40
674;DHT22;319;48.764;9.174;2023-04-01T07:08:44;11.90;99.40
674;DHT22;319;48.764;9.174;2023-04-01T07:11:18;12.00;99.40
674;DHT22;319;48.764;9.174;2023-04-01T07:13:50;12.00;99.20
674;DHT22;319;48.764;9.174;2023-04-01T07:16:21;12.10;99.20
674;DHT22;319;48.764;9.174;2023-04-01T07:18:54;12.20;99.20
674;DHT22;319;48.764;9.174;2023-04-01T07:21:29;12.30;99.40
674;DHT22;319;48.764;9.174;2023-04-01T07:24:00;12.30;99.00
674;DHT22;319;48.764;9.174;2023-04-01T07:26:28;12.30;99.20
674;DHT22;319;48.764;9.174;2023-04-01T07:28:54;12.20;99.20
674;DHT22;319;48.764;9.174;2023-04-01T07:31:36;12.20;99.40
674;DHT22;319;48.764;9.174;2023-04-01T07:34:11;12.10;99.40
674;DHT22;319;48.764;9.174;2023-04-01T07:36:46;12.00;99.60
674;DHT22;319;48.764;9.174;2023-04-01T07:39:25;11.90;99.50
674;DHT22;319;48.764;9.174;2023-04-01T07:42:00;11.90;99.80
674;DHT22;319;48.764;9.174;2023-04-01T07:44:33;11.80;99.80
674;DHT22;319;48.764;9.174;2023-04-01T07:50:09;11.70;99.90
674;DHT22;319;48.764;9.174;2023-04-01T07:52:44;11.80;99.90
674;DHT22;319;48.764;9.174;2023-04-01T07:55:20;12.00;99.90
674;DHT22;319;48.764;9.174;2023-04-01T07:57:52;12.10;99.90
674;DHT22;319;48.764;9.174;2023-04-01T08:00:31;12.10;99.70
674;DHT22;319;48.764;9.174;2023-04-01T08:03:20;12.00;99.70
674;DHT22;319;48.764;9.174;2023-04-01T08:05:54;12.10;99.70
674;DHT22;319;48.764;9.174;2023-04-01T08:08:32;12.20;99.60
674;DHT22;319;48.764;9.174;2023-04-01T08:11:10;12.40;99.40
674;DHT22;319;48.764;9.174;2023-04-01T08:13:45;12.50;99.40
674;DHT22;319;48.764;9.174;2023-04-01T08:16:22;12.60;99.40
674;DHT22;319;48.764;9.174;2023-04-01T08:18:56;12.60;99.00
674;DHT22;319;48.764;9.174;2023-04-01T08:21:28;12.60;99.20
674;DHT22;319;48.764;9.174;2023-04-01T08:24:06;12.50;99.00
674;DHT22;319;48.764;9.174;2023-04-01T08:26:38;12.50;99.40
674;DHT22;319;48.764;9.174;2023-04-01T08:29:13;12.50;99.30
674;DHT22;319;48.764;9.174;2023-04-01T08:31:47;12.40;99.40
674;DHT22;319;48.764;9.174;2023-04-01T08:34:17;12.30;99.50
674;DHT22;319;48.764;9.174;2023-04-01T08:36:48;12.10;99.90
674;DHT22;319;48.764;9.174;2023-04-01T08:39:23;12.20;99.90
674;DHT22;319;48.764;9.174;2023-04-01T08:42:19;12.20;99.90
674;DHT22;319;48.764;9.174;2023-04-01T08:45:11;12.10;99.90
674;DHT22;319;48.764;9.174;2023-04-01T08:48:08;11.90;99.90
674;DHT22;319;48.764;9.174;2023-04-01T08:54:13;11.70;99.90
674;DHT22;319;48.764;9.174;2023-04-01T08:56:53;11.60;99.90
674;DHT22;319;48.764;9.174;2023-04-01T08:59:45;11.50;99.90
674;DHT22;319;48.764;9.174;2023-04-01T09:02:35;11.40;99.90
674;DHT22;319;48.764;9.174;2023-04-01T09:08:22;11.40;99.90
674;DHT22;319;48.764;9.174;2023-04-01T09:11:04;11.30;99.90
674;DHT22;319;48.764;9.174;2023-04-01T09:13:55;11.30;99.90
674;DHT22;319;48.764;9.174;2023-04-01T09:17:04;11.50;99.90
674;DHT22;319;48.764;9.174;2023-04-01T09:19:48;11.60;99.90
674;DHT22;319;48.764;9.174;2023-04-01T09:22:34;11.70;99.90
674;DHT22;319;48.764;9.174;2023-04-01T09:25:23;11.80;99.90
674;DHT22;319;48.764;9.174;2023-04-01T09:27:56;12.00;99.90
674;DHT22;319;48.764;9.174;2023-04-01T09:37:08;12.50;99.90
674;DHT22;319;48.764;9.174;2023-04-01T09:39:46;12.70;99.90
674;DHT22;319;48.764;9.174;2023-04-01T09:42:42;12.90;99.80
674;DHT22;319;48.764;9.174;2023-04-01T09:45:21;12.80;99.90
674;DHT22;319;48.764;9.174;2023-04-01T09:47:58;12.50;99.40
674;DHT22;319;48.764;9.174;2023-04-01T09:50:38;12.50;99.70
674;DHT22;319;48.764;9.174;2023-04-01T09:53:18;12.50;99.90
674;DHT22;319;48.764;9.174;2023-04-01T09:56:06;12.50;99.90
674;DHT22;319;48.764;9.174;2023-04-01T10:08:06;12.30;99.90
674;DHT22;319;48.764;9.174;2023-04-01T10:11:12;12.50;99.90
674;DHT22;319;48.764;9.174;2023-04-01T10:14:06;12.60;99.50
674;DHT22;319;48.764;9.174;2023-04-01T10:17:08;12.60;98.70
674;DHT22;319;48.764;9.174;2023-04-01T10:19:58;12.70;98.80
674;DHT22;319;48.764;9.174;2023-04-01T10:22:49;12.80;98.50
674;DHT22;319;48.764;9.174;2023-04-01T10:25:53;12.90;98.80
674;DHT22;319;48.764;9.174;2023-04-01T10:28:35;13.10;98.40
674;DHT22;319;48.764;9.174;2023-04-01T10:31:42;13.40;97.50
674;DHT22;319;48.764;9.174;2023-04-01T10:37:48;13.60;97.20
674;DHT22;319;48.764;9.174;2023-04-01T10:40:38;13.70;96.60
674;DHT22;319;48.764;9.174;2023-04-01T10:46:36;13.70;96.40
674;DHT22;319;48.764;9.174;2023-04-01T10:49:47;13.90;96.20
674;DHT22;319;48.764;9.174;2023-04-01T10:52:44;13.80;96.00
674;DHT22;319;48.764;9.174;2023-04-01T10:55:36;13.90;95.60
674;DHT22;319;48.764;9.174;2023-04-01T10:58:24;13.90;95.60
674;DHT22;319;48.764;9.174;2023-04-01T11:01:27;13.80;95.60
674;DHT22;319;48.764;9.174;2023-04-01T11:04:34;13.70;95.30
674;DHT22;319;48.764;9.174;2023-04-01T11:10:23;13.40;95.90
674;DHT22;319;48.764;9.174;2023-04-01T11:16:46;13.40;96.00
674;DHT22;319;48.764;9.174;2023-04-01T11:22:52;13.60;95.60
674;DHT22;319;48.764;9.174;2023-04-01T11:25:48;13.90;95.20
674;DHT22;319;48.764;9.174;2023-04-01T11:31:29;14.30;94.40
674;DHT22;319;48.764;9.174;2023-04-01T11:34:05;14.40;94.30
674;DHT22;319;48.764;9.174;2023-04-01T11:36:41;14.60;94.10
674;DHT22;319;48.764;9.174;2023-04-01T11:39:24;14.60;93.90
674;DHT22;319;48.764;9.174;2023-04-01T11:42:01;14.60;93.80
674;DHT22;319;48.764;9.174;2023-04-01T11:44:35;14.50;93.80
674;DHT22;319;48.764;9.174;2023-04-01T11:47:19;14.40;93.80
674;DHT22;319;48.764;9.174;2023-04-01T11:49:56;14.30;93.80
674;DHT22;319;48.764;9.174;2023-04-01T11:52:40;14.30;94.00
674;DHT22;319;48.764;9.174;2023-04-01T11:55:27;14.50;93.90
674;DHT22;319;48.764;9.174;2023-04-01T11:58:23;14.30;93.90
674;DHT22;319;48.764;9.174;2023-04-01T12:01:18;14.30;94.30
674;DHT22;319;48.764;9.174;2023-04-01T12:06:51;13.80;94.40
674;DHT22;319;48.764;9.174;2023-04-01T12:09:22;13.80;94.70
674;DHT22;319;48.764;9.174;2023-04-01T12:12:00;13.80;94.80
674;DHT22;319;48.764;9.174;2023-04-01T12:14:36;13.70;94.90
674;DHT22;319;48.764;9.174;2023-04-01T12:17:18;13.70;95.10
674;DHT22;319;48.764;9.174;2023-04-01T12:19:53;13.80;95.40
674;DHT22;319;48.764;9.174;2023-04-01T12:22:29;13.80;95.30
674;DHT22;319;48.764;9.174;2023-04-01T12:25:11;13.60;95.30
674;DHT22;319;48.764;9.174;2023-04-01T12:27:45;13.60;95.60
674;DHT22;319;48.764;9.174;2023-04-01T12:30:45;13.70;96.00
674;DHT22;319;48.764;9.174;2023-04-01T12:33:40;13.80;96.00
674;DHT22;319;48.764;9.174;2023-04-01T12:36:19;13.90;95.90
674;DHT22;319;48.764;9.174;2023-04-01T12:39:07;13.70;95.60
674;DHT22;319;48.764;9.174;2023-04-01T12:41:44;13.90;95.60
674;DHT22;319;48.764;9.174;2023-04-01T12:44:29;13.90;95.20
674;DHT22;319;48.764;9.174;2023-04-01T12:47:19;14.00;95.00
674;DHT22;319;48.764;9.174;2023-04-01T12:49:58;14.10;94.50
674;DHT22;319;48.764;9.174;2023-04-01T12:52:43;14.30;94.40
674;DHT22;319;48.764;9.174;2023-04-01T12:55:36;14.50;94.00
674;DHT22;319;48.764;9.174;2023-04-01T13:01:29;14.80;93.20
674;DHT22;319;48.764;9.174;2023-04-01T13:07:29;14.80;93.00
674;DHT22;319;48.764;9.174;2023-04-01T13:10:02;14.70;92.90
674;DHT22;319;48.764;9.174;2023-04-01T13:12:54;14.70;93.00
674;DHT22;319;48.764;9.174;2023-04-01T13:15:30;14.80;92.90
674;DHT22;319;48.764;9.174;2023-04-01T13:18:13;14.90;92.70
674;DHT22;319;48.764;9.174;2023-04-01T13:20:47;14.60;92.60
674;DHT22;319;48.764;9.174;2023-04-01T13:23:35;14.30;93.00
674;DHT22;319;48.764;9.174;2023-04-01T13:26:12;14.40;93.50
674;DHT22;319;48.764;9.174;2023-04-01T13:28:45;14.30;93.40
674;DHT22;319;48.764;9.174;2023-04-01T13:34:29;14.20;93.70
674;DHT22;319;48.764;9.174;2023-04-01T13:37:05;14.30;93.60
674;DHT22;319;48.764;9.174;2023-04-01T13:39:54;14.50;93.50
674;DHT22;319;48.764;9.174;2023-04-01T13:42:26;14.60;93.30
674;DHT22;319;48.764;9.174;2023-04-01T13:44:59;14.70;93.30
674;DHT22;319;48.764;9.174;2023-04-01T13:50:44;14.60;93.20
674;DHT22;319;48.764;9.174;2023-04-01T13:53:48;14.50;93.20
674;DHT22;319;48.764;9.174;2023-04-01T13:56:29;14.50;93.40
674;DHT22;319;48.764;9.174;2023-04-01T13:59:10;14.50;93.50
674;DHT22;319;48.764;9.174;2023-04-01T14:01:48;14.50;93.50
674;DHT22;319;48.764;9.174;2023-04-01T14:04:38;14.50;93.50
674;DHT22;319;48.764;9.174;2023-04-01T14:07:23;14.60;93.50
674;DHT22;319;48.764;9.174;2023-04-01T14:10:17;14.50;93.50
674;DHT22;319;48.764;9.174;2023-04-01T14:12:49;14.60;93.20
674;DHT22;319;48.764;9.174;2023-04-01T14:15:33;14.50;93.30
674;DHT22;319;48.764;9.174;2023-04-01T14:21:20;14.30;93.50
674;DHT22;319;48.764;9.174;2023-04-01T14:24:14;14.20;93.80
674;DHT22;319;48.764;9.174;2023-04-01T14:26:56;14.10;94.00
674;DHT22;319;48.764;9.174;2023-04-01T14:29:30;14.00;94.20
674;DHT22;319;48.764;9.174;2023-04-01T14:32:07;14.00;94.40
674;DHT22;319;48.764;9.174;2023-04-01T14:34:55;13.90;94.50
674;DHT22;319;48.764;9.174;2023-04-01T14:37:54;13.90;94.80
674;DHT22;319;48.764;9.174;2023-04-01T14:40:27;13.80;94.80
674;DHT22;319;48.764;9.174;2023-04-01T14:43:20;13.70;95.10
674;DHT22;319;48.764;9.174;2023-04-01T14:45:59;13.70;95.20
674;DHT22;319;48.764;9.174;2023-04-01T14:48:32;13.70;95.70
674;DHT22;319;48.764;9.174;2023-04-01T14:51:08;13.70;96.10
674;DHT22;319;48.764;9.174;2023-04-01T14:53:38;13.80;96.30
674;DHT22;319;48.764;9.174;2023-04-01T14:56:12;13.70;95.80
674;DHT22;319;48.764;9.174;2023-04-01T14:58:43;13.80;95.30
674;DHT22;319;48.764;9.174;2023-04-01T15:01:33;13.80;95.40
674;DHT22;319;48.764;9.174;2023-04-01T15:04:13;13.80;95.00
674;DHT22;319;48.764;9.174;2023-04-01T15:07:01;13.80;94.80
674;DHT22;319;48.764;9.174;2023-04-01T15:09:37;13.70;94.90
674;DHT22;319;48.764;9.174;2023-04-01T15:12:17;14.00;94.80
674;DHT22;319;48.764;9.174;2023-04-01T15:15:09;13.90;94.40
674;DHT22;319;48.764;9.174;2023-04-01T15:17:54;13.90;94.60
674;DHT22;319;48.764;9.174;2023-04-01T15:23:34;14.00;94.70
674;DHT22;319;48.764;9.174;2023-04-01T15:26:15;14.10;94.60
674;DHT22;319;48.764;9.174;2023-04-01T15:28:57;13.90;94.50
674;DHT22;319;48.764;9.174;2023-04-01T15:31:32;13.90;94.70
674;DHT22;319;48.764;9.174;2023-04-01T15:34:26;14.00;94.80
674;DHT22;319;48.764;9.174;2023-04-01T15:36:59;13.90;94.70
674;DHT22;319;48.764;9.174;2023-04-01T15:39:38;13.70;94.70
674;DHT22;319;48.764;9.174;2023-04-01T15:42:19;13.60;95.10
674;DHT22;319;48.764;9.174;2023-04-01T15:45:01;13.60;95.20
674;DHT22;319;48.764;9.174;2023-04-01T15:47:37;13.70;95.20
674;DHT22;319;48.764;9.174;2023-04-01T15:50:35;13.70;95.30
674;DHT22;319;48.764;9.174;2023-04-01T15:53:13;13.70;95.40
674;DHT22;319;48.764;9.174;2023-04-01T15:55:49;13.70;95.60
674;DHT22;319;48.764;9.174;2023-04-01T16:00:54;13.80;95.20
674;DHT22;319;48.764;9.174;2023-04-01T16:03:33;13.60;95.50
674;DHT22;319;48.764;9.174;2023-04-01T16:09:06;13.40;95.90
674;DHT22;319;48.764;9.174;2023-04-01T16:11:43;13.50;95.70
674;DHT22;319;48.764;9.174;2023-04-01T16:14:25;13.40;95.50
674;DHT22;319;48.764;9.174;2023-04-01T16:17:05;13.40;95.60
674;DHT22;319;48.764;9.174;2023-04-01T16:19:51;13.50;95.60
674;DHT22;319;48.764;9.174;2023-04-01T16:22:22;13.40;95.40
674;DHT22;319;48.764;9.174;2023-04-01T16:24:56;13.30;95.60
674;DHT22;319;48.764;9.174;2023-04-01T16:27:32;13.30;95.50
674;DHT22;319;48.764;9.174;2023-04-01T16:30:10;13.30;95.80
674;DHT22;319;48.764;9.174;2023-04-01T16:32:53;13.30;95.80
674;DHT22;319;48.764;9.174;2023-04-01T16:35:31;13.20;95.80
674;DHT22;319;48.764;9.174;2023-04-01T16:38:05;13.20;96.00
674;DHT22;319;48.764;9.174;2023-04-01T16:40:42;13.20;95.90
674;DHT22;319;48.764;9.174;2023-04-01T16:43:17;13.20;96.00
674;DHT22;319;48.764;9.174;2023-04-01T16:45:54;13.30;96.00
674;DHT22;319;48.764;9.174;2023-04-01T16:48:44;13.40;96.00
674;DHT22;319;48.764;9.174;2023-04-01T16:51:15;13.50;96.00
674;DHT22;319;48.764;9.174;2023-04-01T16:53:47;13.60;96.00
674;DHT22;319;48.764;9.174;2023-04-01T16:56:20;13.50;95.90
674;DHT22;319;48.764;9.174;2023-04-01T16:58:57;13.60;96.00
674;DHT22;319;48.764;9.174;2023-04-01T17:01:30;13.70;96.00
674;DHT22;319;48.764;9.174;2023-04-01T17:04:06;13.70;95.90
674;DHT22;319;48.764;9.174;2023-04-01T17:06:42;13.60;95.80
674;DHT22;319;48.764;9.174;2023-04-01T17:09:32;13.60;95.90
674;DHT22;319;48.764;9.174;2023-04-01T17:12:10;13.50;96.00
674;DHT22;319;48.764;9.174;2023-04-01T17:14:44;13.40;96.10
674;DHT22;319;48.764;9.174;2023-04-01T17:17:38;13.40;96.20
674;DHT22;319;48.764;9.174;2023-04-01T17:20:24;13.30;96.30
674;DHT22;319;48.764;9.174;2023-04-01T17:22:55;13.30;96.30
674;DHT22;319;48.764;9.174;2023-04-01T17:25:34;13.30;96.30
674;DHT22;319;48.764;9.174;2023-04-01T17:28:14;13.20;96.50
674;DHT22;319;48.764;9.174;2023-04-01T17:30:47;13.30;96.50
674;DHT22;319;48.764;9.174;2023-04-01T17:36:35;13.20;96.50
674;DHT22;319;48.764;9.174;2023-04-01T17:39:22;13.10;96.70
674;DHT22;319;48.764;9.174;2023-04-01T17:41:55;13.10;96.80
674;DHT22;319;48.764;9.174;2023-04-01T17:44:33;13.10;96.80
674;DHT22;319;48.764;9.174;2023-04-01T17:47:22;13.20;96.90
674;DHT22;319;48.764;9.174;2023-04-01T17:50:00;13.20;96.70
674;DHT22;319;48.764;9.174;2023-04-01T17:52:33;13.20;96.70
674;DHT22;319;48.764;9.174;2023-04-01T17:55:33;13.20;96.80
674;DHT22;319;48.764;9.174;2023-04-01T17:58:10;13.20;96.80
674;DHT22;319;48.764;9.174;2023-04-01T18:00:50;13.20;96.90
674;DHT22;319;48.764;9.174;2023-04-01T18:03:31;13.10;97.10
674;DHT22;319;48.764;9.174;2023-04-01T18:06:04;13.10;97.30
674;DHT22;319;48.764;9.174;2023-04-01T18:08:47;13.10;97.50
674;DHT22;319;48.764;9.174;2023-04-01T18:11:24;13.10;97.60
674;DHT22;319;48.764;9.174;2023-04-01T18:14:04;13.00;98.10
674;DHT22;319;48.764;9.174;2023-04-01T18:16:59;12.90;99.00
674;DHT22;319;48.764;9.174;2023-04-01T18:19:38;12.80;99.60
674;DHT22;319;48.764;9.174;2023-04-01T18:22:15;12.70;99.90
674;DHT22;319;48.764;9.174;2023-04-01T18:24:47;12.60;99.90
674;DHT22;319;48.764;9.174;2023-04-01T18:27:23;12.50;99.90
674;DHT22;319;48.764;9.174;2023-04-01T18:29:54;12.50;99.90
674;DHT22;319;48.764;9.174;2023-04-01T18:32:30;12.40;99.90
674;DHT22;319;48.764;9.174;2023-04-01T18:35:02;12.30;99.90
674;DHT22;319;48.764;9.174;2023-04-01T18:37:42;12.10;99.90
674;DHT22;319;48.764;9.174;2023-04-01T18:40:19;12.10;99.90
674;DHT22;319;48.764;9.174;2023-04-01T18:42:55;12.00;99.90
674;DHT22;319;48.764;9.174;2023-04-01T18:45:28;11.90;99.90
674;DHT22;319;48.764;9.174;2023-04-01T18:48:11;11.90;99.90
674;DHT22;319;48.764;9.174;2023-04-01T18:50:43;11.80;99.90
674;DHT22;319;48.764;9.174;2023-04-01T18:53:24;11.70;99.90
674;DHT22;319;48.764;9.174;2023-04-01T18:55:58;11.60;99.90
674;DHT22;319;48.764;9.174;2023-04-01T18:58:34;11.50;99.90